Time;durP1;ratioP1;P1;durP2;ratioP2;P2;SDS_P1;SDS_P2;PMS_P1;PMS_P2;Temp;Humidity;BMP_temperature;BMP_pressure;BME280_temperature;BME280_humidity;BME280_pressure;Samples;Min_cycle;Max_cycle;Signal;HPM_P1;HPM_P2
2020/12/27 00:02:13;;;;;;;17.88;10.40;;;;;;;-3.09;73.13;96430.66;5071831;28;20047;-81
2020/12/27 00:04:39;;;;;;;20.35;11.23;;;;;;;-3.12;73.28;96423.25;5071536;28;20032;-81
2020/12/27 00:07:14;;;;;;;16.95;9.10;;;;;;;-3.13;73.14;96419.03;5072825;28;20412;-81
2020/12/27 00:09:42;;;;;;;16.00;8.70;;;;;;;-3.15;73.17;96414.06;5061484;28;20040;-81
2020/12/27 00:12:09;;;;;;;12.27;7.38;;;;;;;-3.14;73.23;96409.75;5072364;28;20061;-81
2020/12/27 00:14:36;;;;;;;16.98;7.80;;;;;;;-3.13;73.56;96411.34;5072955;28;20045;-81
2020/12/27 00:17:07;;;;;;;13.20;6.88;;;;;;;-3.13;73.16;96401.91;5072748;28;20039;-81
2020/12/27 00:19:33;;;;;;;12.85;6.55;;;;;;;-3.13;73.07;96403.66;5073533;28;20496;-81
2020/12/27 00:22:00;;;;;;;13.63;6.80;;;;;;;-3.12;73.13;96395.84;5073047;28;20473;-81
2020/12/27 00:24:26;;;;;;;13.50;6.97;;;;;;;-3.10;73.27;96385.44;5072463;28;20476;-81
2020/12/27 00:26:53;;;;;;;13.23;6.90;;;;;;;-3.11;73.01;96382.06;5072487;28;20047;-82
2020/12/27 00:29:19;;;;;;;12.32;6.40;;;;;;;-3.09;72.97;96371.66;5072806;28;20044;-82
2020/12/27 00:31:48;;;;;;;11.73;6.72;;;;;;;-3.09;73.38;96358.84;5073035;28;20491;-81
2020/12/27 00:34:14;;;;;;;11.65;6.03;;;;;;;-3.09;73.19;96349.41;5070959;28;20052;-81
2020/12/27 00:36:41;;;;;;;12.13;6.25;;;;;;;-3.09;73.00;96343.44;5071010;28;20480;-81
2020/12/27 00:39:07;;;;;;;12.73;6.53;;;;;;;-3.08;73.20;96338.19;5071202;28;20512;-81
2020/12/27 00:41:34;;;;;;;15.52;6.63;;;;;;;-3.07;72.79;96333.88;5072971;28;20468;-81
2020/12/27 00:44:00;;;;;;;12.80;6.13;;;;;;;-3.08;72.90;96322.00;5072194;28;20048;-81
2020/12/27 00:46:26;;;;;;;14.68;7.07;;;;;;;-3.10;72.95;96317.00;5071711;28;20048;-81
2020/12/27 00:48:53;;;;;;;11.45;6.32;;;;;;;-3.12;72.89;96318.09;5072499;28;20041;-81
2020/12/27 00:51:28;;;;;;;11.63;5.93;;;;;;;-3.18;72.88;96298.91;5071236;28;20032;-82
2020/12/27 00:53:55;;;;;;;12.68;6.60;;;;;;;-3.18;72.99;96301.47;5073557;28;20047;-82
2020/12/27 00:56:21;;;;;;;10.43;6.45;;;;;;;-3.18;73.08;96291.22;5075985;28;20427;-82
2020/12/27 00:58:47;;;;;;;11.35;5.75;;;;;;;-3.19;73.01;96289.59;5075103;28;20041;-83
2020/12/27 01:01:14;;;;;;;11.95;6.55;;;;;;;-3.22;72.60;96274.47;5076498;28;20060;-83
2020/12/27 01:03:41;;;;;;;13.38;6.72;;;;;;;-3.26;72.70;96273.94;5076349;28;20045;-83
2020/12/27 01:06:07;;;;;;;13.60;6.20;;;;;;;-3.30;72.79;96253.81;5075807;28;20045;-82
2020/12/27 01:08:33;;;;;;;10.00;6.03;;;;;;;-3.34;72.63;96258.44;5076143;28;20056;-82
2020/12/27 01:11:01;;;;;;;11.73;5.90;;;;;;;-3.39;72.83;96254.66;5075990;28;20049;-82
2020/12/27 01:13:27;;;;;;;10.52;5.90;;;;;;;-3.41;73.11;96249.66;5076515;28;20047;-82
2020/12/27 01:15:54;;;;;;;11.68;6.50;;;;;;;-3.40;73.10;96241.03;5075625;28;20048;-82
2020/12/27 01:18:21;;;;;;;10.48;6.15;;;;;;;-3.38;73.23;96241.72;5075448;28;20404;-82
2020/12/27 01:20:47;;;;;;;14.70;6.93;;;;;;;-3.42;73.05;96240.34;5075813;28;20055;-82
2020/12/27 01:23:13;;;;;;;11.50;6.78;;;;;;;-3.52;72.93;96222.41;5076102;28;20051;-82
2020/12/27 01:25:39;;;;;;;11.95;5.95;;;;;;;-3.56;73.09;96221.06;5074383;28;20056;-82
2020/12/27 01:28:06;;;;;;;12.60;6.70;;;;;;;-3.56;73.71;96230.50;5074653;28;20053;-82
2020/12/27 01:30:32;;;;;;;11.70;6.55;;;;;;;-3.59;73.67;96225.63;5074054;28;20404;-82
2020/12/27 01:32:58;;;;;;;11.35;6.25;;;;;;;-3.58;73.67;96224.72;5058023;28;20029;-82
2020/12/27 01:35:24;;;;;;;13.38;6.13;;;;;;;-3.56;73.62;96223.63;5074168;28;20044;-82
2020/12/27 01:37:50;;;;;;;16.38;7.35;;;;;;;-3.50;73.39;96217.16;5075651;28;20049;-82
2020/12/27 01:40:16;;;;;;;13.18;6.03;;;;;;;-3.45;73.56;96216.75;5075581;28;20052;-82
2020/12/27 01:42:42;;;;;;;10.10;5.80;;;;;;;-3.40;73.44;96206.88;5074578;28;20111;-81
2020/12/27 01:45:09;;;;;;;13.05;6.22;;;;;;;-3.35;73.60;96204.72;5075427;28;20377;-82
2020/12/27 01:47:35;;;;;;;11.27;6.00;;;;;;;-3.31;73.56;96196.63;5074718;28;20045;-82
2020/12/27 01:50:02;;;;;;;11.85;6.22;;;;;;;-3.31;73.19;96181.22;5075151;28;20044;-82
2020/12/27 01:52:29;;;;;;;13.45;6.40;;;;;;;-3.35;73.20;96177.31;5075316;28;20037;-82
2020/12/27 01:54:55;;;;;;;10.70;6.22;;;;;;;-3.39;73.39;96175.19;5075411;28;20044;-82
2020/12/27 01:57:31;;;;;;;13.13;5.80;;;;;;;-3.46;73.53;96164.66;5074841;28;20056;-82
2020/12/27 01:59:57;;;;;;;11.70;6.05;;;;;;;-3.51;73.40;96159.97;5075003;28;20047;-82
2020/12/27 02:02:23;;;;;;;10.23;6.00;;;;;;;-3.54;73.34;96157.66;5073253;28;20522;-82
2020/12/27 02:04:50;;;;;;;12.35;6.03;;;;;;;-3.53;73.36;96150.78;5074525;28;20496;-82
2020/12/27 02:07:16;;;;;;;10.23;5.82;;;;;;;-3.55;73.45;96138.13;5074928;28;20048;-82
2020/12/27 02:09:44;;;;;;;10.25;5.72;;;;;;;-3.60;73.70;96134.34;5074557;28;20059;-82
2020/12/27 02:12:12;;;;;;;8.77;5.82;;;;;;;-3.63;73.46;96130.31;5074587;28;20048;-82
2020/12/27 02:14:38;;;;;;;10.52;5.82;;;;;;;-3.63;73.54;96114.09;5074717;28;20048;-81
2020/12/27 02:17:07;;;;;;;14.70;5.70;;;;;;;-3.62;73.24;96119.09;5074895;28;20053;-82
2020/12/27 02:19:33;;;;;;;10.48;5.70;;;;;;;-3.59;73.75;96108.56;5075044;28;20051;-82
2020/12/27 02:22:00;;;;;;;13.75;5.78;;;;;;;-3.62;73.15;96098.59;5073161;28;20210;-82
2020/12/27 02:24:27;;;;;;;8.80;5.65;;;;;;;-3.61;73.24;96089.13;5074898;28;20036;-82
2020/12/27 02:26:55;;;;;;;10.23;5.75;;;;;;;-3.62;73.29;96083.22;5074688;28;20487;-82
2020/12/27 02:29:22;;;;;;;10.02;6.00;;;;;;;-3.64;73.05;96081.75;5073313;28;20043;-82
2020/12/27 02:31:48;;;;;;;16.52;6.30;;;;;;;-3.68;73.26;96076.06;5073562;28;20040;-82
2020/12/27 02:34:14;;;;;;;11.05;5.85;;;;;;;-3.71;73.31;96066.13;5073815;28;20039;-82
2020/12/27 02:36:40;;;;;;;10.60;6.32;;;;;;;-3.68;73.10;96060.69;5074487;28;20411;-82
2020/12/27 02:39:08;;;;;;;11.82;6.40;;;;;;;-3.66;73.38;96048.56;5072676;28;20040;-82
2020/12/27 02:41:34;;;;;;;13.35;6.50;;;;;;;-3.66;73.22;96028.06;5074042;28;20049;-82
2020/12/27 02:44:01;;;;;;;14.13;6.70;;;;;;;-3.65;73.21;96024.56;5074335;28;20049;-82
2020/12/27 02:46:27;;;;;;;10.10;5.90;;;;;;;-3.63;73.18;96014.16;5072658;28;20439;-82
2020/12/27 02:48:54;;;;;;;11.95;6.32;;;;;;;-3.60;72.99;96003.63;5074327;28;20036;-82
2020/12/27 02:51:20;;;;;;;12.07;6.18;;;;;;;-3.60;73.00;96001.06;5073889;28;20049;-82
2020/12/27 02:53:48;;;;;;;11.65;6.22;;;;;;;-3.64;73.08;95987.72;5073721;28;20036;-82
2020/12/27 02:56:22;;;;;;;13.80;6.50;;;;;;;-3.66;73.05;95976.81;5072761;28;20044;-82
2020/12/27 02:58:49;;;;;;;13.50;6.30;;;;;;;-3.71;72.97;95973.88;5074590;28;20049;-82
2020/12/27 03:01:16;;;;;;;12.18;6.07;;;;;;;-3.74;73.03;95971.56;5072648;28;20404;-82
2020/12/27 03:03:42;;;;;;;14.98;5.75;;;;;;;-3.77;73.10;95964.97;5072153;28;20393;-82
2020/12/27 03:06:09;;;;;;;12.70;6.47;;;;;;;-3.75;73.45;95952.03;5073035;28;20504;-82
2020/12/27 03:08:35;;;;;;;13.05;5.95;;;;;;;-3.72;73.08;95944.06;5073659;28;20052;-82
2020/12/27 03:11:02;;;;;;;11.73;6.00;;;;;;;-3.75;73.01;95941.78;5073881;28;20052;-82
2020/12/27 03:13:28;;;;;;;11.93;6.30;;;;;;;-3.80;73.17;95933.72;5072008;28;20047;-82
2020/12/27 03:15:54;;;;;;;13.43;6.57;;;;;;;-3.81;73.58;95927.78;5073851;28;20044;-82
2020/12/27 03:18:21;;;;;;;14.27;6.50;;;;;;;-3.78;73.38;95916.44;5071089;28;20063;-82
2020/12/27 03:20:48;;;;;;;12.55;6.15;;;;;;;-3.76;73.45;95919.66;5073579;28;20036;-82
2020/12/27 03:23:15;;;;;;;9.65;6.40;;;;;;;-3.75;73.51;95916.97;5073476;28;20491;-82
2020/12/27 03:25:42;;;;;;;13.15;7.85;;;;;;;-3.75;73.20;95923.84;5072386;28;20040;-82
2020/12/27 03:28:09;;;;;;;11.07;6.35;;;;;;;-3.74;73.18;95928.03;5055776;28;20043;-82
2020/12/27 03:30:36;;;;;;;12.73;7.18;;;;;;;-3.77;73.50;95921.44;5073510;28;20041;-82
2020/12/27 03:33:03;;;;;;;9.80;6.32;;;;;;;-3.81;73.31;95917.53;5073326;28;20053;-82
2020/12/27 03:35:29;;;;;;;12.15;6.75;;;;;;;-3.78;73.71;95924.13;5073163;28;20468;-82
2020/12/27 03:37:56;;;;;;;11.50;6.65;;;;;;;-3.77;73.53;95913.75;5073221;28;20432;-82
2020/12/27 03:40:22;;;;;;;11.32;6.75;;;;;;;-3.81;73.35;95906.50;5073528;28;20468;-82
2020/12/27 03:42:48;;;;;;;11.55;7.00;;;;;;;-3.83;73.24;95908.38;5072778;28;20404;-82
2020/12/27 03:45:14;;;;;;;11.30;6.82;;;;;;;-3.81;73.60;95907.28;5073380;28;20048;-82
2020/12/27 03:47:40;;;;;;;12.18;6.20;;;;;;;-3.80;73.48;95900.41;5073140;28;20056;-82
2020/12/27 03:50:07;;;;;;;11.70;6.53;;;;;;;-3.82;73.73;95889.50;5072399;28;20049;-82
2020/12/27 03:52:33;;;;;;;12.10;6.50;;;;;;;-3.83;73.63;95881.00;5071721;28;20040;-82
2020/12/27 03:54:59;;;;;;;18.20;8.10;;;;;;;-3.87;73.55;95867.66;5071303;28;20040;-82
2020/12/27 03:57:26;;;;;;;12.75;7.13;;;;;;;-3.86;73.67;95860.81;5072811;28;20036;-82
2020/12/27 03:59:52;;;;;;;15.85;7.50;;;;;;;-3.87;73.49;95862.53;5073807;28;20396;-82
2020/12/27 04:02:18;;;;;;;11.65;5.95;;;;;;;-3.85;73.80;95852.16;5071541;28;20041;-82
2020/12/27 04:04:44;;;;;;;14.40;6.68;;;;;;;-3.89;73.58;95832.91;5072833;28;20059;-82
2020/12/27 04:07:10;;;;;;;12.23;6.95;;;;;;;-3.92;73.64;95833.22;5071412;28;20055;-82
2020/12/27 04:09:36;;;;;;;13.70;8.23;;;;;;;-3.94;73.93;95827.41;5072686;28;20400;-82
2020/12/27 04:12:02;;;;;;;16.05;7.32;;;;;;;-3.94;73.52;95823.09;5071771;28;20400;-82
2020/12/27 04:14:29;;;;;;;13.57;8.20;;;;;;;-3.91;73.90;95822.00;5071591;28;20052;-82
2020/12/27 04:16:55;;;;;;;34.97;20.77;;;;;;;-3.92;73.57;95820.41;5073033;28;20036;-82
2020/12/27 04:19:21;;;;;;;21.20;11.13;;;;;;;-3.97;73.79;95807.19;5072551;28;20408;-82
2020/12/27 04:21:47;;;;;;;15.93;8.73;;;;;;;-3.97;73.71;95804.63;5072978;28;20396;-82
2020/12/27 04:24:14;;;;;;;27.55;13.43;;;;;;;-4.00;74.03;95787.00;5072342;28;20067;-82
2020/12/27 04:26:40;;;;;;;26.17;13.57;;;;;;;-4.04;74.25;95789.03;5073214;28;20028;-82
2020/12/27 04:29:06;;;;;;;33.30;16.02;;;;;;;-4.05;74.09;95786.63;5073949;28;20048;-81
2020/12/27 04:31:33;;;;;;;20.33;12.73;;;;;;;-4.08;74.41;95774.91;5076777;28;20037;-82
2020/12/27 04:33:59;;;;;;;13.68;8.30;;;;;;;-4.06;74.12;95760.22;5077366;28;20040;-82
2020/12/27 04:36:25;;;;;;;15.93;8.90;;;;;;;-4.07;74.19;95758.63;5075238;28;20409;-82
2020/12/27 04:38:51;;;;;;;12.68;8.02;;;;;;;-4.11;74.35;95759.84;5075206;28;20059;-82
2020/12/27 04:41:19;;;;;;;14.35;8.13;;;;;;;-4.08;74.39;95755.22;5076870;28;20056;-82
2020/12/27 04:43:47;;;;;;;14.63;7.35;;;;;;;-4.12;74.86;95735.19;5076752;28;20151;-82
2020/12/27 04:46:15;;;;;;;16.67;8.35;;;;;;;-4.11;74.26;95731.69;5046379;28;20045;-82
2020/12/27 04:48:43;;;;;;;11.23;6.85;;;;;;;-4.14;74.43;95731.97;5076738;28;20098;-82
2020/12/27 04:51:11;;;;;;;14.27;7.22;;;;;;;-4.14;74.73;95731.97;5065814;28;20044;-82
2020/12/27 04:53:38;;;;;;;14.18;7.95;;;;;;;-4.08;74.51;95719.38;5076163;28;20048;-82
2020/12/27 04:56:07;;;;;;;12.20;7.20;;;;;;;-4.08;74.59;95719.38;5076071;28;20052;-81
2020/12/27 04:58:33;;;;;;;12.18;7.55;;;;;;;-4.11;74.41;95712.00;5076595;28;20036;-82
2020/12/27 05:01:01;;;;;;;13.48;7.82;;;;;;;-4.08;74.46;95710.91;5076115;28;20060;-82
2020/12/27 05:03:28;;;;;;;11.60;7.03;;;;;;;-4.10;74.56;95702.56;5075265;28;20047;-82
2020/12/27 05:05:56;;;;;;;14.80;8.00;;;;;;;-4.06;74.61;95701.31;5075776;28;20052;-82
2020/12/27 05:08:22;;;;;;;15.07;8.55;;;;;;;-4.03;74.66;95703.59;5076041;28;20048;-82
2020/12/27 05:10:49;;;;;;;12.38;7.28;;;;;;;-4.01;74.29;95699.16;5076071;28;20044;-82
2020/12/27 05:13:16;;;;;;;14.88;8.57;;;;;;;-4.00;74.61;95692.25;5076714;28;20052;-82
2020/12/27 05:15:43;;;;;;;15.45;8.50;;;;;;;-3.99;74.56;95693.84;5075559;28;20051;-82
2020/12/27 05:18:11;;;;;;;14.77;9.10;;;;;;;-3.98;74.68;95686.03;5075584;28;20060;-82
2020/12/27 05:20:41;;;;;;;16.08;8.05;;;;;;;-3.98;74.89;95667.31;5076103;28;20044;-82
2020/12/27 05:23:08;;;;;;;16.65;8.40;;;;;;;-4.03;74.72;95657.50;5075401;28;20051;-82
2020/12/27 05:25:40;;;;;;;16.55;8.40;;;;;;;-4.03;74.60;95664.38;5074630;28;20047;-81
2020/12/27 05:28:10;;;;;;;16.73;8.68;;;;;;;-4.03;75.00;95670.31;5063042;28;20424;-82
2020/12/27 05:30:42;;;;;;;19.17;9.90;;;;;;;-4.04;74.81;95671.25;5075354;28;20052;-82
2020/12/27 05:33:13;;;;;;;16.08;8.32;;;;;;;-3.99;74.64;95663.13;5075590;28;20067;-82
2020/12/27 05:35:40;;;;;;;15.18;8.25;;;;;;;-3.95;74.54;95654.19;5075717;28;20059;-82
2020/12/27 05:38:07;;;;;;;16.05;8.65;;;;;;;-3.94;74.60;95653.25;5074458;28;20040;-82
2020/12/27 05:40:40;;;;;;;15.27;8.38;;;;;;;-3.91;74.90;95646.06;5074991;28;20033;-82
2020/12/27 05:43:14;;;;;;;16.60;9.38;;;;;;;-3.94;75.16;95641.25;5075198;28;20581;-82
2020/12/27 05:45:41;;;;;;;;;;;;;;;-3.99;75.46;95630.66;5076119;28;20041;-82
2020/12/27 05:48:08;;;;;;;15.25;8.23;;;;;;;-4.03;75.02;95619.09;5076076;28;19915;-82
2020/12/27 05:50:39;;;;;;;16.13;8.38;;;;;;;-4.07;75.45;95602.44;5074264;28;20064;-81
2020/12/27 05:53:24;;;;;;;15.80;8.95;;;;;;;-4.08;76.04;95600.81;5074945;28;20037;-82
2020/12/27 05:55:52;;;;;;;17.90;8.65;;;;;;;-4.10;75.30;95595.81;5074258;28;20041;-82
2020/12/27 05:58:18;;;;;;;16.50;8.35;;;;;;;-4.06;75.26;95585.28;5075377;28;20063;-82
2020/12/27 06:00:49;;;;;;;16.15;8.65;;;;;;;-4.05;75.31;95577.47;5075213;28;20033;-81
2020/12/27 06:03:29;;;;;;;15.32;7.90;;;;;;;-4.06;75.57;95586.09;5075692;28;20059;-82
2020/12/27 06:05:58;;;;;;;15.32;8.98;;;;;;;-4.03;75.35;95577.31;5074692;28;20036;-81
2020/12/27 06:08:27;;;;;;;16.70;9.07;;;;;;;-4.03;75.48;95573.00;5074673;28;20067;-82
2020/12/27 06:11:36;;;;;;;18.40;9.70;;;;;;;-4.03;76.51;95552.53;5066907;28;20048;-82
2020/12/27 06:14:14;;;;;;;18.60;10.05;;;;;;;-4.02;75.88;95545.66;5064831;28;20053;-82
2020/12/27 06:16:46;;;;;;;15.48;9.07;;;;;;;-4.03;76.14;95536.34;5061169;28;20049;-82
2020/12/27 06:19:24;;;;;;;17.80;9.00;;;;;;;-4.04;76.05;95530.41;5073769;28;20032;-82
2020/12/27 06:22:09;;;;;;;18.60;9.18;;;;;;;-4.03;76.51;95529.47;5075039;28;20048;-81
2020/12/27 06:24:38;;;;;;;18.65;9.50;;;;;;;-4.03;75.84;95529.47;5074242;28;20052;-81
2020/12/27 06:27:05;;;;;;;16.27;9.23;;;;;;;-3.99;75.43;95525.66;5074853;28;20404;-82
2020/12/27 06:29:48;;;;;;;18.30;9.77;;;;;;;-3.91;76.02;95524.91;5073564;28;20047;-81
2020/12/27 06:32:17;;;;;;;15.32;9.07;;;;;;;-3.84;75.65;95523.34;5074752;28;20044;-81
2020/12/27 06:34:43;;;;;;;17.58;9.63;;;;;;;-3.80;75.55;95516.97;5074537;28;20388;-82
2020/12/27 06:37:10;;;;;;;19.88;10.13;;;;;;;-3.79;75.57;95510.09;5074505;28;20029;-82
2020/12/27 06:39:36;;;;;;;17.65;9.43;;;;;;;-3.82;75.35;95500.13;5073627;28;20033;-81
2020/12/27 06:42:18;;;;;;;17.23;9.35;;;;;;;-3.79;75.65;95508.31;5072915;28;20056;-81
2020/12/27 06:44:49;;;;;;;17.02;9.35;;;;;;;-3.77;75.52;95496.16;5074190;28;20059;-81
2020/12/27 06:47:16;;;;;;;24.40;10.50;;;;;;;-3.79;75.49;95492.97;5073380;28;20045;-82
2020/12/27 06:49:43;;;;;;;17.85;10.32;;;;;;;-3.76;75.14;95496.97;5074278;28;20468;-82
2020/12/27 06:52:20;;;;;;;13.05;8.65;;;;;;;-3.74;75.49;95495.88;5073279;28;20048;-81
2020/12/27 06:54:49;;;;;;;18.45;8.55;;;;;;;-3.72;75.14;95481.13;5072095;28;20032;-81
2020/12/27 06:57:45;;;;;;;18.23;9.02;;;;;;;-3.71;75.38;95479.41;5072380;28;20036;-82
2020/12/27 07:00:18;;;;;;;16.30;9.00;;;;;;;-3.66;75.54;95479.72;5074347;28;20473;-82
2020/12/27 07:02:46;;;;;;;14.48;8.75;;;;;;;-3.64;75.08;95454.75;5072825;28;20047;-81
2020/12/27 07:05:27;;;;;;;19.35;9.65;;;;;;;-3.63;75.67;95448.69;5073791;28;20059;-82
2020/12/27 07:07:54;;;;;;;18.50;10.02;;;;;;;-3.63;75.59;95442.75;5074616;28;20385;-82
2020/12/27 07:10:23;;;;;;;17.52;9.75;;;;;;;-3.67;75.30;95440.50;5073502;28;20048;-81
2020/12/27 07:12:50;;;;;;;14.93;8.85;;;;;;;-3.69;75.57;95426.25;5073210;28;20063;-82
2020/12/27 07:15:16;;;;;;;18.08;9.50;;;;;;;-3.73;75.43;95425.75;5073768;28;20386;-81
2020/12/27 07:17:44;;;;;;;16.67;10.40;;;;;;;-3.77;75.72;95414.19;5071927;28;20045;-82
2020/12/27 07:20:17;;;;;;;19.38;10.02;;;;;;;-3.78;75.77;95415.16;5073214;28;20045;-82
2020/12/27 07:22:43;;;;;;;15.30;8.65;;;;;;;-3.79;75.74;95416.09;5073493;28;20040;-82
2020/12/27 07:25:14;;;;;;;19.63;9.88;;;;;;;-3.80;76.12;95417.09;5073374;28;20051;-82
2020/12/27 07:27:41;;;;;;;18.27;9.18;;;;;;;-3.80;75.90;95414.53;5072419;28;20028;-82
2020/12/27 07:30:07;;;;;;;19.08;9.10;;;;;;;-3.81;76.20;95409.53;5073679;28;20472;-82
2020/12/27 07:32:40;;;;;;;19.08;10.10;;;;;;;-3.82;76.15;95403.63;5073417;28;20052;-82
2020/12/27 07:35:11;;;;;;;18.05;10.05;;;;;;;-3.77;76.24;95405.72;5072779;28;20044;-82
2020/12/27 07:37:43;;;;;;;15.23;9.35;;;;;;;-3.70;76.04;95401.56;5073479;28;20041;-82
2020/12/27 07:40:11;;;;;;;18.02;9.77;;;;;;;-3.62;75.96;95405.94;5059135;28;20032;-82
2020/12/27 07:42:38;;;;;;;19.73;9.90;;;;;;;-3.53;76.07;95398.13;5073096;28;20049;-81
2020/12/27 07:45:12;;;;;;;16.02;9.90;;;;;;;-3.52;75.80;95396.34;5073162;28;20041;-82
2020/12/27 07:47:38;;;;;;;;;;;;;;;-3.54;76.04;95381.13;5073676;28;20488;-81
2020/12/27 07:50:17;;;;;;;27.88;13.63;;;;;;;-3.52;75.67;95375.84;5072272;28;20348;-82
2020/12/27 07:52:43;;;;;;;18.23;11.65;;;;;;;-3.48;75.78;95374.56;5073335;28;20031;-82
2020/12/27 07:55:09;;;;;;;17.17;9.90;;;;;;;-3.44;75.61;95369.91;5072964;28;20040;-82
2020/12/27 07:57:36;;;;;;;17.48;9.90;;;;;;;-3.45;75.67;95356.31;5072522;28;20041;-82
2020/12/27 08:00:05;;;;;;;15.13;8.95;;;;;;;-3.43;75.66;95335.66;5072031;28;20036;-82
2020/12/27 08:02:32;;;;;;;16.35;9.07;;;;;;;-3.39;75.46;95319.00;5072323;28;20051;-82
2020/12/27 08:05:02;;;;;;;16.10;9.00;;;;;;;-3.36;75.45;95321.22;5072631;28;20040;-81
2020/12/27 08:07:29;;;;;;;18.33;8.70;;;;;;;-3.28;75.53;95328.94;5071563;28;20040;-82
2020/12/27 08:09:55;;;;;;;14.95;8.77;;;;;;;-3.25;75.40;95320.94;5072506;28;20057;-82
2020/12/27 08:12:22;;;;;;;17.05;8.70;;;;;;;-3.20;75.59;95320.47;5054840;28;20502;-81
2020/12/27 08:14:50;;;;;;;17.25;9.15;;;;;;;-3.15;75.56;95319.03;5072729;28;20049;-82
2020/12/27 08:17:16;;;;;;;17.17;9.02;;;;;;;-3.12;75.18;95325.59;5072804;28;20065;-81
2020/12/27 08:19:42;;;;;;;15.50;8.70;;;;;;;-3.11;75.02;95322.03;5072826;28;20503;-82
2020/12/27 08:22:08;;;;;;;16.27;9.95;;;;;;;-3.09;75.07;95317.56;5072625;28;20052;-82
2020/12/27 08:24:35;;;;;;;14.85;8.25;;;;;;;-3.08;75.38;95312.28;5072737;28;20033;-82
2020/12/27 08:27:01;;;;;;;16.90;7.85;;;;;;;-3.06;74.95;95309.56;5073309;28;20468;-81
2020/12/27 08:29:27;;;;;;;20.70;8.95;;;;;;;-3.10;75.18;95296.25;5071279;28;20055;-82
2020/12/27 08:32:04;;;;;;;15.70;8.52;;;;;;;-3.09;74.81;95295.31;5072640;28;20051;-82
2020/12/27 08:34:32;;;;;;;16.10;8.80;;;;;;;-3.04;75.01;95299.13;5071644;28;20465;-81
2020/12/27 08:36:59;;;;;;;13.70;8.35;;;;;;;-2.98;75.27;95288.22;5072624;28;20037;-82
2020/12/27 08:39:46;;;;;;;14.25;8.48;;;;;;;-2.94;75.14;95285.19;5071157;28;20040;-81
2020/12/27 08:42:36;;;;;;;16.15;8.13;;;;;;;-2.93;74.62;95284.22;5062797;28;20059;-81
2020/12/27 08:45:02;;;;;;;13.13;8.23;;;;;;;-2.89;75.01;95277.00;5061123;28;20064;-82
2020/12/27 08:48:05;;;;;;;14.90;8.38;;;;;;;-2.83;73.93;95278.91;5072139;28;20051;-82
2020/12/27 08:50:54;;;;;;;17.90;8.88;;;;;;;-2.83;73.30;95266.09;5072388;28;20071;-81
2020/12/27 08:53:21;;;;;;;13.23;8.27;;;;;;;-2.78;74.30;95268.16;5071540;28;20036;-81
2020/12/27 08:55:47;;;;;;;19.10;8.85;;;;;;;-2.76;74.51;95261.09;5072634;28;20473;-82
2020/12/27 08:58:13;;;;;;;14.63;8.57;;;;;;;-2.74;74.00;95267.66;5072410;28;20055;-82
2020/12/27 09:00:47;;;;;;;17.30;8.10;;;;;;;-2.66;74.29;95259.94;5070507;28;20481;-81
2020/12/27 09:03:13;;;;;;;16.98;8.25;;;;;;;-2.57;74.27;95254.78;5071058;28;20040;-82
2020/12/27 09:05:39;;;;;;;17.45;8.43;;;;;;;-2.48;74.09;95236.63;5072467;28;20047;-81
2020/12/27 09:08:17;;;;;;;13.98;8.13;;;;;;;-2.47;73.26;95229.72;5072359;28;20053;-82
2020/12/27 09:10:44;;;;;;;12.00;7.68;;;;;;;-2.48;73.41;95221.25;5072238;28;20408;-82
2020/12/27 09:13:12;;;;;;;18.35;8.93;;;;;;;-2.49;73.20;95206.78;5072591;28;20044;-81
2020/12/27 09:15:44;;;;;;;14.38;8.75;;;;;;;-2.46;73.70;95205.66;5074225;28;20175;-81
2020/12/27 09:18:16;;;;;;;12.75;8.07;;;;;;;-2.44;73.76;95193.44;5075958;28;20059;-82
2020/12/27 09:20:44;;;;;;;15.32;9.43;;;;;;;-2.40;73.58;95192.13;5075891;28;20047;-81
2020/12/27 09:23:18;;;;;;;17.63;9.45;;;;;;;-2.32;73.58;95181.84;5075518;28;20048;-82
2020/12/27 09:25:46;;;;;;;13.95;8.60;;;;;;;-2.28;73.49;95175.41;5076196;28;20476;-81
2020/12/27 09:28:16;;;;;;;18.10;9.60;;;;;;;-2.17;73.71;95173.41;5076157;28;20036;-81
2020/12/27 09:30:57;;;;;;;14.98;8.52;;;;;;;-2.05;72.68;95156.66;5075732;28;20472;-81
2020/12/27 09:33:23;;;;;;;14.48;8.55;;;;;;;-1.95;73.55;95158.97;5075850;28;20053;-81
2020/12/27 09:35:57;;;;;;;17.80;9.88;;;;;;;-1.89;72.89;95148.81;5074660;28;20036;-81
2020/12/27 09:38:28;;;;;;;17.02;9.18;;;;;;;-1.86;72.75;95145.09;5075301;28;20044;-81
2020/12/27 09:41:23;;;;;;;15.90;9.60;;;;;;;-1.84;71.33;95123.41;5073882;28;20040;-82
2020/12/27 09:43:54;;;;;;;14.63;8.57;;;;;;;-1.81;72.65;95129.97;5063038;28;20060;-82
2020/12/27 09:46:42;;;;;;;13.82;8.43;;;;;;;-1.75;71.77;95119.00;5075396;28;20044;-81
2020/12/27 09:49:18;;;;;;;15.15;8.55;;;;;;;-1.75;71.23;95107.91;5074520;28;20044;-81
2020/12/27 09:51:44;;;;;;;13.93;7.78;;;;;;;-1.80;72.28;95103.31;5074005;28;20040;-81
2020/12/27 09:54:10;;;;;;;12.70;8.10;;;;;;;-1.84;72.63;95102.84;5075061;28;20047;-81
2020/12/27 09:56:41;;;;;;;12.70;7.45;;;;;;;-1.84;72.37;95087.44;5075156;28;20064;-81
2020/12/27 09:59:07;;;;;;;13.18;7.03;;;;;;;-1.78;72.78;95093.66;5075428;28;20037;-81
2020/12/27 10:01:33;;;;;;;15.55;7.85;;;;;;;-1.70;72.93;95080.72;5075551;28;20037;-81
2020/12/27 10:04:00;;;;;;;15.50;9.05;;;;;;;-1.63;72.26;95073.91;5073472;28;20040;-81
2020/12/27 10:06:26;;;;;;;13.73;8.05;;;;;;;-1.63;72.13;95055.91;5075363;28;20029;-81
2020/12/27 10:08:52;;;;;;;12.82;8.15;;;;;;;-1.65;72.18;95032.16;5074667;28;20048;-81
2020/12/27 10:11:18;;;;;;;14.95;7.50;;;;;;;-1.60;72.00;95015.41;5075466;28;20044;-81
2020/12/27 10:13:44;;;;;;;11.55;7.45;;;;;;;-1.55;71.90;95016.47;5075156;28;20052;-81
2020/12/27 10:16:10;;;;;;;10.38;6.78;;;;;;;-1.52;71.91;95008.41;5075068;28;20413;-81
2020/12/27 10:18:37;;;;;;;10.75;7.32;;;;;;;-1.47;71.64;95005.28;5074999;28;20040;-81
2020/12/27 10:21:06;;;;;;;10.43;7.22;;;;;;;-1.45;71.54;94985.34;5074485;28;20050;-82
2020/12/27 10:23:32;;;;;;;14.20;7.15;;;;;;;-1.44;71.58;94976.66;5074831;28;20051;-81
2020/12/27 10:25:58;;;;;;;10.73;5.88;;;;;;;-1.41;70.89;94962.66;5074425;28;20040;-81
2020/12/27 10:28:24;;;;;;;10.80;6.07;;;;;;;-1.40;71.06;94952.19;5073063;28;20049;-81
2020/12/27 10:30:51;;;;;;;12.25;6.57;;;;;;;-1.42;70.73;94941.28;5072763;28;20059;-81
2020/12/27 10:33:17;;;;;;;9.98;5.72;;;;;;;-1.39;71.09;94924.69;5072898;28;20088;-81
2020/12/27 10:35:43;;;;;;;13.02;6.60;;;;;;;-1.37;70.96;94912.47;5074683;28;20048;-81
2020/12/27 10:38:09;;;;;;;10.50;6.38;;;;;;;-1.34;70.67;94914.69;5073145;28;20049;-81
2020/12/27 10:40:38;;;;;;;18.05;7.35;;;;;;;-1.31;70.83;94901.44;5073935;28;20048;-81
2020/12/27 10:43:04;;;;;;;11.30;6.60;;;;;;;-1.24;71.20;94892.03;5073334;28;20060;-81
2020/12/27 10:45:31;;;;;;;10.60;6.43;;;;;;;-1.14;71.11;94892.53;5072540;28;20522;-81
2020/12/27 10:47:57;;;;;;;12.45;6.95;;;;;;;-1.09;71.07;94882.50;5074461;28;20048;-81
2020/12/27 10:50:23;;;;;;;11.15;6.85;;;;;;;-1.08;70.71;94857.56;5073879;28;20063;-81
2020/12/27 10:52:49;;;;;;;10.20;6.65;;;;;;;-1.03;70.52;94853.47;5073441;28;20381;-80
2020/12/27 10:55:15;;;;;;;15.10;5.63;;;;;;;-0.98;70.69;94841.81;5074376;28;20045;-81
2020/12/27 10:57:42;;;;;;;9.77;5.75;;;;;;;-0.91;70.39;94840.88;5072098;28;20051;-81
2020/12/27 11:00:08;;;;;;;9.02;5.90;;;;;;;-0.86;70.39;94838.56;5073080;28;20032;-80
2020/12/27 11:02:34;;;;;;;15.63;6.60;;;;;;;-0.75;70.53;94839.03;5072185;28;20044;-80
2020/12/27 11:05:00;;;;;;;8.40;5.28;;;;;;;-0.67;70.07;94823.44;5073961;28;20420;-81
2020/12/27 11:07:26;;;;;;;8.90;5.40;;;;;;;-0.64;69.71;94815.34;5056183;28;20033;-80
2020/12/27 11:09:52;;;;;;;11.15;5.22;;;;;;;-0.60;69.71;94798.53;5074567;28;20052;-80
2020/12/27 11:12:18;;;;;;;10.48;5.50;;;;;;;-0.62;69.18;94795.34;5073709;28;20075;-80
2020/12/27 11:14:45;;;;;;;9.55;5.22;;;;;;;-0.56;69.78;94789.44;5073621;28;20424;-80
2020/12/27 11:17:11;;;;;;;10.05;5.75;;;;;;;-0.50;69.60;94788.69;5074323;28;20404;-80
2020/12/27 11:19:37;;;;;;;8.85;5.28;;;;;;;-0.45;69.22;94773.47;5073720;28;20045;-80
2020/12/27 11:22:03;;;;;;;10.00;5.80;;;;;;;-0.44;68.86;94769.91;5073176;28;20059;-80
2020/12/27 11:24:29;;;;;;;8.73;5.22;;;;;;;-0.46;68.59;94760.78;5073228;28;20041;-80
2020/12/27 11:26:55;;;;;;;10.60;6.15;;;;;;;-0.50;69.00;94762.16;5073407;28;20048;-80
2020/12/27 11:29:22;;;;;;;12.32;6.97;;;;;;;-0.50;69.27;94752.66;5073662;28;20053;-80
2020/12/27 11:31:52;;;;;;;11.70;7.25;;;;;;;-0.47;68.94;94741.16;5072090;28;20055;-80
2020/12/27 11:34:18;;;;;;;13.65;7.78;;;;;;;-0.47;69.14;94713.63;5073078;28;20052;-80